createdAt,value
2022-09-04T00:02:00.992Z,97532.31
2022-09-04T00:04:37.742Z,97536.75
2022-09-04T00:07:21.680Z,97534.63
2022-09-04T00:10:01.869Z,97542.63
2022-09-04T00:12:32.742Z,97539.81
2022-09-04T00:15:07.609Z,97540.63
2022-09-04T00:17:41.533Z,97539.50
2022-09-04T00:20:13.744Z,97533.44
2022-09-04T00:22:50.941Z,97535.22
2022-09-04T00:25:24.382Z,97539.28
2022-09-04T00:27:59.659Z,97530.81
2022-09-04T00:30:26.829Z,97537.84
2022-09-04T00:33:00.853Z,97539.31
2022-09-04T00:35:29.650Z,97535.59
2022-09-04T00:38:00.272Z,97540.81
2022-09-04T00:40:30.280Z,97546.84
2022-09-04T00:43:18.309Z,97543.09
2022-09-04T00:45:56.874Z,97550.25
2022-09-04T00:48:46.733Z,97548.94
2022-09-04T00:51:23.735Z,97548.88
2022-09-04T00:54:10.484Z,97548.72
2022-09-04T00:57:03.601Z,97547.91
2022-09-04T00:59:47.820Z,97556.50
2022-09-04T01:02:25.308Z,97562.72
2022-09-04T01:05:03.167Z,97565.03
2022-09-04T01:07:47.621Z,97576.84
2022-09-04T01:10:35.493Z,97578.50
2022-09-04T01:13:09.125Z,97585.19
2022-09-04T01:15:40.665Z,97580.94
2022-09-04T01:18:14.723Z,97580.28
2022-09-04T01:21:14.839Z,97570.09
2022-09-04T01:24:03.077Z,97577.94
2022-09-04T01:26:40.095Z,97578.03
2022-09-04T01:29:19.435Z,97578.53
2022-09-04T01:31:54.111Z,97583.63
2022-09-04T01:34:34.395Z,97580.69
2022-09-04T01:37:09.613Z,97576.59
2022-09-04T01:39:39.192Z,97592.59
2022-09-04T01:42:13.572Z,97594.56
2022-09-04T01:44:40.301Z,97590.59
2022-09-04T01:47:15.438Z,97595.50
2022-09-04T01:49:47.052Z,97593.75
2022-09-04T01:52:33.760Z,97594.81
2022-09-04T01:55:13.628Z,97597.81
2022-09-04T01:57:59.951Z,97591.75
2022-09-04T02:00:33.185Z,97597.44
2022-09-04T02:03:07.413Z,97606.53
2022-09-04T02:05:49.060Z,97607.81
2022-09-04T02:08:29.315Z,97603.53
2022-09-04T02:11:02.541Z,97601.69
2022-09-04T02:13:41.391Z,97603.47
2022-09-04T02:16:14.823Z,97603.16
2022-09-04T02:18:56.654Z,97601.84
2022-09-04T02:21:28.805Z,97604.97
2022-09-04T02:24:05.012Z,97601.38
2022-09-04T02:26:38.850Z,97597.59
2022-09-04T02:29:15.433Z,97599.72
2022-09-04T02:31:49.367Z,97596.22
2022-09-04T02:34:24.521Z,97594.13
2022-09-04T02:36:58.405Z,97598.19
2022-09-04T02:39:39.679Z,97604.13
2022-09-04T02:42:12.241Z,97607.41
2022-09-04T02:44:46.674Z,97611.00
2022-09-04T02:47:23.700Z,97613.25
2022-09-04T02:50:01.812Z,97615.56
2022-09-04T02:52:51.889Z,97608.09
2022-09-04T02:55:30.661Z,97601.81
2022-09-04T02:58:12.744Z,97601.66
2022-09-04T03:00:43.921Z,97600.13
2022-09-04T03:03:17.489Z,97604.69
2022-09-04T03:05:50.313Z,97597.00
2022-09-04T03:08:21.045Z,97594.03
2022-09-04T03:10:54.275Z,97607.50
2022-09-04T03:13:38.155Z,97589.78
2022-09-04T03:16:13.720Z,97604.66
2022-09-04T03:19:01.935Z,97613.25
2022-09-04T03:21:35.591Z,97613.25
2022-09-04T03:24:07.397Z,97612.44
2022-09-04T03:26:37.034Z,97617.16
2022-09-04T03:29:10.344Z,97612.34
2022-09-04T03:31:47.831Z,97609.97
2022-09-04T03:34:32.989Z,97618.66
2022-09-04T03:37:20.170Z,97608.50
2022-09-04T03:39:57.792Z,97618.59
2022-09-04T03:42:36.579Z,97614.94
2022-09-04T03:45:16.560Z,97612.09
2022-09-04T03:47:58.528Z,97613.09
2022-09-04T03:50:29.718Z,97609.41
2022-09-04T03:53:05.592Z,97618.91
2022-09-04T03:55:57.133Z,97630.31
2022-09-04T03:58:33.819Z,97621.47
2022-09-04T04:01:06.573Z,97630.31
2022-09-04T04:03:55.341Z,97638.59
2022-09-04T04:06:30.977Z,97630.44
2022-09-04T04:09:22.401Z,97636.53
2022-09-04T04:12:08.394Z,97626.44
2022-09-04T04:14:52.002Z,97635.19
2022-09-04T04:17:32.023Z,97641.03
2022-09-04T04:20:13.085Z,97640.81
2022-09-04T04:23:06.652Z,97631.16
2022-09-04T04:25:46.484Z,97629.09
2022-09-04T04:28:29.760Z,97631.56
2022-09-04T04:31:06.661Z,97633.31
2022-09-04T04:33:50.029Z,97646.78
2022-09-04T04:36:27.976Z,97651.28
2022-09-04T04:39:19.136Z,97658.97
2022-09-04T04:42:00.539Z,97650.81
2022-09-04T04:44:35.269Z,97657.47
2022-09-04T04:47:11.235Z,97662.78
2022-09-04T04:49:54.576Z,97674.91
2022-09-04T04:52:34.224Z,97676.56
2022-09-04T04:55:10.876Z,97677.97
2022-09-04T04:57:52.381Z,97677.97
2022-09-04T05:00:27.524Z,97693.38
2022-09-04T05:03:04.443Z,97687.91
2022-09-04T05:05:52.849Z,97692.31
2022-09-04T05:08:29.116Z,97696.22
2022-09-04T05:11:03.005Z,97699.69
2022-09-04T05:13:38.583Z,97702.56
2022-09-04T05:16:18.046Z,97707.50
2022-09-04T05:18:55.648Z,97718.50
2022-09-04T05:21:32.994Z,97722.50
2022-09-04T05:24:05.379Z,97723.81
2022-09-04T05:26:38.834Z,97724.28
2022-09-04T05:29:12.940Z,97726.84
2022-09-04T05:31:47.862Z,97734.00
2022-09-04T05:34:25.609Z,97730.47
2022-09-04T05:37:02.793Z,97733.44
2022-09-04T05:39:39.290Z,97736.91
2022-09-04T05:42:37.998Z,97746.00
2022-09-04T05:45:18.592Z,97749.03
2022-09-04T05:47:58.546Z,97754.66
2022-09-04T05:50:53.863Z,97755.00
2022-09-04T05:53:41.584Z,97768.84
2022-09-04T05:56:40.707Z,97773.06
2022-09-04T05:59:54.524Z,97766.00
2022-09-04T06:02:47.483Z,97779.28
2022-09-04T06:05:24.099Z,97775.44
2022-09-04T06:08:00.268Z,97780.44
2022-09-04T06:10:35.566Z,97774.75
2022-09-04T06:13:23.687Z,97781.50
2022-09-04T06:16:14.380Z,97786.38
2022-09-04T06:19:05.832Z,97794.88
2022-09-04T06:21:54.744Z,97791.81
2022-09-04T06:24:49.809Z,97788.47
2022-09-04T06:27:34.504Z,97792.09
2022-09-04T06:30:08.357Z,97796.69
2022-09-04T06:33:15.561Z,97807.75
2022-09-04T06:36:19.265Z,97809.41
2022-09-04T06:39:02.989Z,97814.69
2022-09-04T06:41:47.704Z,97807.13
2022-09-04T06:44:26.715Z,97807.97
2022-09-04T06:47:03.322Z,97800.59
2022-09-04T06:49:40.148Z,97814.03
2022-09-04T06:52:19.094Z,97808.34
2022-09-04T06:54:56.506Z,97811.41
2022-09-04T06:57:38.103Z,97811.97
2022-09-04T07:00:07.629Z,97818.13
2022-09-04T07:03:13.433Z,97819.63
2022-09-04T07:05:51.124Z,97819.78
2022-09-04T07:08:32.769Z,97826.00
2022-09-04T07:11:11.634Z,97828.00
2022-09-04T07:14:04.857Z,97831.44
2022-09-04T07:16:43.372Z,97832.44
2022-09-04T07:19:36.972Z,97840.94
2022-09-04T07:22:23.533Z,97838.28
2022-09-04T07:25:02.469Z,97834.34
2022-09-04T07:27:42.313Z,97830.75
2022-09-04T07:30:11.938Z,97833.13
2022-09-04T07:32:45.298Z,97838.78
2022-09-04T07:35:20.509Z,97835.34
2022-09-04T07:37:56.062Z,97837.13
2022-09-04T07:40:30.703Z,97840.09
2022-09-04T07:43:03.742Z,97839.53
2022-09-04T07:45:34.750Z,97845.31
2022-09-04T07:48:15.499Z,97846.44
2022-09-04T07:50:52.632Z,97850.34
2022-09-04T07:53:30.363Z,97848.53
2022-09-04T07:56:00.545Z,97843.91
2022-09-04T07:58:47.819Z,97851.06
2022-09-04T08:01:37.006Z,97857.59
2022-09-04T08:04:25.678Z,97868.22
2022-09-04T08:06:57.611Z,97870.56
2022-09-04T08:09:52.414Z,97874.94
2022-09-04T08:12:32.161Z,97873.59
2022-09-04T08:15:13.630Z,97873.56
2022-09-04T08:18:10.030Z,97867.28
2022-09-04T08:20:44.037Z,97862.22
2022-09-04T08:23:39.526Z,97868.38
2022-09-04T08:26:20.791Z,97861.53
2022-09-04T08:29:05.926Z,97864.81
2022-09-04T08:31:40.259Z,97867.97
2022-09-04T08:34:29.576Z,97866.72
2022-09-04T08:37:03.938Z,97870.53
2022-09-04T08:39:38.747Z,97878.38
2022-09-04T08:42:30.316Z,97875.94
2022-09-04T08:45:42.109Z,97876.41
2022-09-04T08:48:36.641Z,97877.19
2022-09-04T08:51:30.960Z,97878.94
2022-09-04T08:54:23.459Z,97879.31
2022-09-04T08:57:10.263Z,97879.19
2022-09-04T09:00:01.852Z,97876.56
2022-09-04T09:03:01.244Z,97881.81
2022-09-04T09:06:04.318Z,97891.00
2022-09-04T09:09:10.177Z,97887.72
2022-09-04T09:11:54.754Z,97895.91
2022-09-04T09:14:51.250Z,97891.88
2022-09-04T09:17:34.437Z,97892.25
2022-09-04T09:20:20.569Z,97889.00
2022-09-04T09:23:18.457Z,97886.25
2022-09-04T09:25:50.972Z,97887.81
2022-09-04T09:29:05.167Z,97887.88
2022-09-04T09:32:03.844Z,97883.59
2022-09-04T09:35:13.249Z,97886.19
2022-09-04T09:38:13.865Z,97883.53
2022-09-04T09:41:12.126Z,97880.91
2022-09-04T09:44:07.792Z,97877.59
2022-09-04T09:47:05.526Z,97871.34
2022-09-04T09:49:59.979Z,97881.06
2022-09-04T09:52:55.462Z,97877.56
2022-09-04T09:55:53.839Z,97876.41
2022-09-04T09:58:47.783Z,97876.16
2022-09-04T10:01:33.806Z,97875.59
2022-09-04T10:04:34.211Z,97874.53
2022-09-04T10:07:26.927Z,97875.88
2022-09-04T10:10:24.259Z,97880.09
2022-09-04T10:13:26.874Z,97863.41
2022-09-04T10:16:28.736Z,97870.06
2022-09-04T10:19:28.921Z,97865.22
2022-09-04T10:22:46.254Z,97866.94
2022-09-04T10:25:50.149Z,97862.28
2022-09-04T10:28:39.341Z,97863.19
2022-09-04T10:31:30.252Z,97862.00
2022-09-04T10:34:12.403Z,97859.03
2022-09-04T10:36:50.460Z,97863.47
2022-09-04T10:39:28.602Z,97852.16
2022-09-04T10:42:05.519Z,97858.47
2022-09-04T10:44:44.756Z,97854.72
2022-09-04T10:47:23.935Z,97856.97
2022-09-04T10:50:24.128Z,97861.78
2022-09-04T10:53:10.512Z,97860.38
2022-09-04T10:56:01.156Z,97852.13
2022-09-04T10:58:39.526Z,97849.41
2022-09-04T11:01:34.671Z,97859.56
2022-09-04T11:04:20.157Z,97850.13
2022-09-04T11:07:28.946Z,97849.25
2022-09-04T11:10:22.879Z,97847.03
2022-09-04T11:13:07.713Z,97844.63
2022-09-04T11:15:49.459Z,97844.94
2022-09-04T11:18:39.853Z,97842.19
2022-09-04T11:21:37.250Z,97845.44
2022-09-04T11:24:35.917Z,97842.75
2022-09-04T11:27:40.994Z,97844.91
2022-09-04T11:30:16.510Z,97845.88
2022-09-04T11:33:15.899Z,97838.63
2022-09-04T11:36:15.876Z,97844.13
2022-09-04T11:39:13.725Z,97847.81
2022-09-04T11:42:11.387Z,97848.25
2022-09-04T11:45:16.615Z,97845.16
2022-09-04T11:48:02.570Z,97847.63
2022-09-04T11:50:43.967Z,97848.75
2022-09-04T11:53:36.498Z,97856.44
2022-09-04T11:56:26.396Z,97853.88
2022-09-04T11:59:31.181Z,97849.69
2022-09-04T12:02:22.113Z,97849.13
2022-09-04T12:05:13.328Z,97841.94
2022-09-04T12:07:55.349Z,97848.94
2022-09-04T12:10:40.056Z,97840.53
2022-09-04T12:13:22.005Z,97841.78
2022-09-04T12:16:17.949Z,97842.94
2022-09-04T12:19:10.289Z,97842.16
2022-09-04T12:22:06.390Z,97845.34
2022-09-04T12:25:00.910Z,97853.13
2022-09-04T12:27:57.233Z,97847.53
2022-09-04T12:30:28.855Z,97849.22
2022-09-04T12:33:03.061Z,97846.81
2022-09-04T12:36:16.644Z,97849.25
2022-09-04T12:39:05.576Z,97854.53
2022-09-04T12:41:39.696Z,97851.16
2022-09-04T12:44:15.887Z,97852.78
2022-09-04T12:47:00.229Z,97858.31
2022-09-04T12:49:57.358Z,97849.13
2022-09-04T12:52:39.270Z,97846.97
2022-09-04T12:55:15.457Z,97853.16
2022-09-04T12:57:54.017Z,97851.22
2022-09-04T13:00:20.589Z,97851.66
2022-09-04T13:03:00.425Z,97855.41
2022-09-04T13:05:53.040Z,97852.03
2022-09-04T13:08:34.236Z,97854.81
2022-09-04T13:11:16.188Z,97851.72
2022-09-04T13:13:53.333Z,97849.91
2022-09-04T13:16:26.566Z,97857.50
2022-09-04T13:19:04.789Z,97856.56
2022-09-04T13:21:47.976Z,97857.59
2022-09-04T13:24:28.075Z,97857.66
2022-09-04T13:27:07.088Z,97860.63
2022-09-04T13:29:44.790Z,97861.94
2022-09-04T13:32:34.784Z,97873.38
2022-09-04T13:35:17.396Z,97861.38
2022-09-04T13:38:00.311Z,97864.88
2022-09-04T13:40:43.257Z,97872.69
2022-09-04T13:43:28.228Z,97866.81
2022-09-04T13:45:59.991Z,97870.25
2022-09-04T13:48:36.722Z,97870.00
2022-09-04T13:51:13.638Z,97865.66
2022-09-04T13:53:56.303Z,97868.69
2022-09-04T13:56:28.342Z,97855.97
2022-09-04T13:59:02.293Z,97859.78
2022-09-04T14:01:32.722Z,97862.09
2022-09-04T14:04:02.903Z,97866.38
2022-09-04T14:06:32.119Z,97859.28
2022-09-04T14:09:05.586Z,97855.41
2022-09-04T14:12:12.566Z,97864.00
2022-09-04T14:15:21.309Z,97856.03
2022-09-04T14:18:01.186Z,97860.41
2022-09-04T14:20:32.129Z,97862.91
2022-09-04T14:23:10.177Z,97871.81
2022-09-04T14:25:44.980Z,97866.00
2022-09-04T14:28:19.640Z,97866.50
2022-09-04T14:31:00.483Z,97865.75
2022-09-04T14:33:36.737Z,97872.53
2022-09-04T14:36:17.420Z,97868.19
2022-09-04T14:38:54.353Z,97868.19
2022-09-04T14:41:36.132Z,97864.72
2022-09-04T14:44:17.289Z,97864.75
2022-09-04T14:46:51.717Z,97868.88
2022-09-04T14:49:23.845Z,97869.97
2022-09-04T14:51:54.710Z,97870.66
2022-09-04T14:54:26.370Z,97866.50
2022-09-04T14:56:54.718Z,97872.91
2022-09-04T14:59:28.790Z,97872.00
2022-09-04T15:02:11.339Z,97870.31
2022-09-04T15:04:45.615Z,97872.22
2022-09-04T15:07:31.221Z,97871.88
2022-09-04T15:10:09.625Z,97868.47
2022-09-04T15:12:39.150Z,97865.41
2022-09-04T15:15:10.488Z,97869.97
2022-09-04T15:17:43.598Z,97870.72
2022-09-04T15:20:18.434Z,97877.16
2022-09-04T15:22:49.453Z,97868.91
2022-09-04T15:26:01.694Z,97869.31
2022-09-04T15:28:36.619Z,97878.41
2022-09-04T15:31:15.209Z,97874.38
2022-09-04T15:33:44.248Z,97873.66
2022-09-04T15:36:17.251Z,97868.00
2022-09-04T15:38:48.595Z,97869.19
2022-09-04T15:41:21.221Z,97873.59
2022-09-04T15:43:52.340Z,97873.66
2022-09-04T15:46:27.390Z,97871.00
2022-09-04T15:49:03.712Z,97874.13
2022-09-04T15:51:42.179Z,97873.56
2022-09-04T15:54:30.286Z,97873.75
2022-09-04T15:57:02.126Z,97881.31
2022-09-04T15:59:41.517Z,97875.19
2022-09-04T16:02:20.369Z,97876.16
2022-09-04T16:04:52.392Z,97872.09
2022-09-04T16:07:35.837Z,97881.78
2022-09-04T16:10:09.437Z,97870.47
2022-09-04T16:12:41.013Z,97880.00
2022-09-04T16:15:12.325Z,97880.47
2022-09-04T16:17:43.017Z,97878.47
2022-09-04T16:20:18.005Z,97875.38
2022-09-04T16:22:50.564Z,97878.81
2022-09-04T16:25:27.302Z,97879.47
2022-09-04T16:27:59.530Z,97879.28
2022-09-04T16:30:34.538Z,97865.47
2022-09-04T16:33:02.180Z,97876.72
2022-09-04T16:35:34.937Z,97869.38
2022-09-04T16:38:07.963Z,97873.22
2022-09-04T16:40:39.842Z,97865.63
2022-09-04T16:43:17.360Z,97863.25
2022-09-04T16:45:49.571Z,97861.13
2022-09-04T16:48:34.952Z,97866.22
2022-09-04T16:51:23.500Z,97862.53
2022-09-04T16:54:04.050Z,97866.00
2022-09-04T16:56:37.512Z,97869.25
2022-09-04T16:59:27.867Z,97870.53
2022-09-04T17:02:00.628Z,97870.78
2022-09-04T17:04:35.889Z,97872.16
2022-09-04T17:07:15.423Z,97882.69
2022-09-04T17:09:52.372Z,97877.94
2022-09-04T17:12:30.102Z,97877.75
2022-09-04T17:15:06.544Z,97867.03
2022-09-04T17:17:33.250Z,97877.38
2022-09-04T17:20:06.467Z,97882.81
2022-09-04T17:29:02.429Z,97876.81
2022-09-04T17:29:12.479Z,97880.34
2022-09-04T17:29:13.162Z,97887.03
2022-09-04T17:31:40.846Z,97888.19
2022-09-04T17:40:39.586Z,97892.00
2022-09-04T17:40:41.260Z,97892.69
2022-09-04T17:41:34.749Z,97893.22
2022-09-04T17:43:23.664Z,97899.75
2022-09-04T17:46:04.816Z,97903.78
2022-09-04T17:48:33.287Z,97907.69
2022-09-04T17:51:02.800Z,97906.88
2022-09-04T17:53:34.198Z,97915.19
2022-09-04T17:56:08.055Z,97914.63
2022-09-04T17:58:43.094Z,97913.16
2022-09-04T18:01:17.586Z,97920.88
2022-09-04T18:04:12.166Z,97919.34
2022-09-04T18:06:41.355Z,97925.44
2022-09-04T18:09:13.978Z,97935.25
2022-09-04T18:11:59.915Z,97939.03
2022-09-04T18:14:36.813Z,97941.34
2022-09-04T18:17:12.228Z,97936.75
2022-09-04T18:19:44.670Z,97937.44
2022-09-04T18:22:26.452Z,97944.13
2022-09-04T18:25:16.117Z,97948.75
2022-09-04T18:28:09.686Z,97957.34
2022-09-04T18:37:12.604Z,97956.78
2022-09-04T18:37:17.804Z,97959.28
2022-09-04T18:37:26.561Z,97957.59
2022-09-04T18:39:41.465Z,97963.44
2022-09-04T18:49:29.721Z,97964.88
2022-09-04T18:50:24.181Z,97974.91
2022-09-04T18:50:46.125Z,97973.66
2022-09-04T18:51:20.672Z,97970.91
2022-09-04T18:53:52.701Z,97971.09
2022-09-04T18:56:23.901Z,97970.97
2022-09-04T18:58:57.147Z,97971.91
2022-09-04T19:01:28.520Z,97982.94
2022-09-04T19:04:19.516Z,97979.16
2022-09-04T19:07:06.880Z,97975.41
2022-09-04T19:09:55.754Z,97982.00
2022-09-04T19:12:35.737Z,97990.56
2022-09-04T19:15:36.363Z,97989.94
2022-09-04T19:18:13.175Z,97985.66
2022-09-04T19:20:46.251Z,97980.44
2022-09-04T19:23:17.743Z,97987.00
2022-09-04T19:25:47.554Z,97985.53
2022-09-04T19:28:25.203Z,97988.69
2022-09-04T19:30:54.630Z,97976.53
2022-09-04T19:33:31.668Z,97980.97
2022-09-04T19:36:03.737Z,97995.59
2022-09-04T19:44:36.661Z,97986.41
2022-09-04T19:46:02.603Z,97989.19
2022-09-04T19:46:06.480Z,97982.66
2022-09-04T19:47:28.482Z,97992.28
2022-09-04T19:53:19.979Z,97990.00
2022-09-04T19:53:30.934Z,97991.84
2022-09-04T19:55:45.466Z,97988.53
2022-09-04T19:58:17.824Z,97979.84
2022-09-04T20:00:49.742Z,97982.59
2022-09-04T20:03:30.316Z,97982.09
2022-09-04T20:06:20.910Z,97978.47
2022-09-04T20:08:58.542Z,97975.84
2022-09-04T20:11:35.091Z,97986.16
2022-09-04T20:14:14.790Z,97980.25
2022-09-04T20:16:56.524Z,97983.38
2022-09-04T20:19:29.056Z,97987.47
2022-09-04T20:22:00.381Z,97981.06
2022-09-04T20:24:36.361Z,97981.22
2022-09-04T20:27:10.465Z,97979.75
2022-09-04T20:29:41.830Z,97980.38
2022-09-04T20:32:16.500Z,97982.53
2022-09-04T20:34:48.593Z,97982.53
2022-09-04T20:37:24.884Z,97986.13
2022-09-04T20:40:02.221Z,97988.25
2022-09-04T20:42:34.521Z,97988.59
2022-09-04T20:48:43.301Z,97983.84
2022-09-04T20:52:40.908Z,97984.69
2022-09-04T20:53:05.660Z,97989.91
2022-09-04T20:53:47.903Z,97985.53
2022-09-04T20:58:05.481Z,97993.22
2022-09-04T21:03:09.889Z,97986.78
2022-09-04T21:03:18.901Z,97993.53
2022-09-04T21:05:32.915Z,97991.41
2022-09-04T21:08:06.025Z,97992.06
2022-09-04T21:10:37.567Z,97991.25
2022-09-04T21:13:13.435Z,97996.63
2022-09-04T21:15:51.735Z,97998.41
2022-09-04T21:18:37.751Z,98002.38
2022-09-04T21:21:22.740Z,98000.41
2022-09-04T21:24:10.263Z,98003.16
2022-09-04T21:27:01.721Z,98007.22
2022-09-04T21:29:57.586Z,98011.34
2022-09-04T21:33:36.565Z,98000.81
2022-09-04T21:35:53.038Z,98012.25
2022-09-04T21:38:48.401Z,98020.06
2022-09-04T21:41:43.882Z,98018.25
2022-09-04T21:44:37.669Z,98019.03
2022-09-04T21:47:21.527Z,98028.69
2022-09-04T21:50:23.050Z,98032.66
2022-09-04T21:53:33.249Z,98033.34
2022-09-04T22:02:26.037Z,98037.41
2022-09-04T22:02:36.082Z,98029.72
2022-09-04T22:02:39.038Z,98036.06
2022-09-04T22:05:16.052Z,98036.81
2022-09-04T22:11:26.865Z,98031.59
2022-09-04T22:13:33.557Z,98038.47
2022-09-04T22:13:50.182Z,98038.78
2022-09-04T22:16:31.089Z,98036.81
2022-09-04T22:19:25.414Z,98039.16
2022-09-04T22:22:03.399Z,98037.63
2022-09-04T22:25:06.469Z,98034.22
2022-09-04T22:28:07.567Z,98036.75
2022-09-04T22:30:48.911Z,98024.09
2022-09-04T22:33:48.207Z,98030.31
2022-09-04T22:36:46.252Z,98042.50
2022-09-04T22:39:35.956Z,98035.06
2022-09-04T22:42:36.373Z,98041.31
2022-09-04T22:45:28.616Z,98039.81
2022-09-04T22:48:13.265Z,98037.31
2022-09-04T22:50:49.440Z,98045.53
2022-09-04T22:53:43.578Z,98039.59
2022-09-04T22:56:24.564Z,98049.28
2022-09-04T22:59:25.724Z,98054.19
2022-09-04T23:02:46.039Z,98042.25
2022-09-04T23:05:44.405Z,98053.63
2022-09-04T23:13:43.117Z,98054.13
2022-09-04T23:14:02.133Z,98053.56
2022-09-04T23:14:52.342Z,98048.38
2022-09-04T23:18:31.293Z,98044.38
2022-09-04T23:26:34.484Z,98042.06
2022-09-04T23:26:44.646Z,98040.84
2022-09-04T23:27:28.267Z,98041.13
2022-09-04T23:30:06.268Z,98041.50
2022-09-04T23:32:56.074Z,98036.13
2022-09-04T23:35:36.276Z,98038.59
2022-09-04T23:38:24.455Z,98034.53
2022-09-04T23:40:55.242Z,98037.56
2022-09-04T23:43:44.912Z,98039.84
2022-09-04T23:46:30.989Z,98033.72
2022-09-04T23:49:31.667Z,98031.25
2022-09-04T23:52:04.510Z,98033.72
2022-09-04T23:54:53.389Z,98042.66
2022-09-04T23:57:27.781Z,98033.31
